ILG weather

New Castle Airport
Wilmington, Delaware, United States

Public forecast

Using degrees Fahrenheit for public forecast. Weather courtesy of forecast.io.

Current aviation weather report (METAR) for New Castle Airport

Retrieved 2019/10/22 13:35 UTC (34 seconds ago):

KILG 221335Z 11005KT 1 3/4SM R01/6000VP6000FT BR OVC003 15/14 A3003 RMK AO2 RAE1256 P0001 T01500144

Aviation forecast (TAF) for New Castle Airport

Retrieved 2019/10/22 12:39 UTC (57 minutes ago):

TAF KILG 221137Z 2212/2312 10007KT 6SM BR SCT007 OVC010 TEMPO 2212/2214 BKN007 FM221400 13007KT P6SM OVC008 FM222000 13010KT 6SM -RA BR OVC008 FM222300 16010KT 3SM RA BR OVC005 FM230300 27007KT 6SM -RA BR BKN025 FM230600 30010KT P6SM SCT050